sensor_id;sensor_type;location;lat;lon;timestamp;P1;durP1;ratioP1;P2;durP2;ratioP2
16502;SDS011;53067;48.114;11.694;2023-03-04T00:01:55;58.40;;;31.13;;
16502;SDS011;53067;48.114;11.694;2023-03-04T00:04:23;52.90;;;28.90;;
16502;SDS011;53067;48.114;11.694;2023-03-04T00:06:50;53.47;;;29.70;;
16502;SDS011;53067;48.114;11.694;2023-03-04T00:09:18;58.57;;;30.63;;
16502;SDS011;53067;48.114;11.694;2023-03-04T00:11:46;57.50;;;31.03;;
16502;SDS011;53067;48.114;11.694;2023-03-04T00:14:13;49.43;;;28.93;;
16502;SDS011;53067;48.114;11.694;2023-03-04T00:16:41;56.87;;;30.83;;
16502;SDS011;53067;48.114;11.694;2023-03-04T00:19:09;55.97;;;29.23;;
16502;SDS011;53067;48.114;11.694;2023-03-04T00:21:36;60.30;;;31.00;;
16502;SDS011;53067;48.114;11.694;2023-03-04T00:24:04;59.80;;;32.00;;
16502;SDS011;53067;48.114;11.694;2023-03-04T00:26:32;55.40;;;28.07;;
16502;SDS011;53067;48.114;11.694;2023-03-04T00:29:00;51.43;;;29.10;;
16502;SDS011;53067;48.114;11.694;2023-03-04T00:31:27;60.07;;;31.73;;
16502;SDS011;53067;48.114;11.694;2023-03-04T00:33:55;48.23;;;28.00;;
16502;SDS011;53067;48.114;11.694;2023-03-04T00:36:22;53.27;;;29.33;;
16502;SDS011;53067;48.114;11.694;2023-03-04T00:38:50;56.97;;;29.23;;
16502;SDS011;53067;48.114;11.694;2023-03-04T00:41:17;58.33;;;31.20;;
16502;SDS011;53067;48.114;11.694;2023-03-04T00:43:45;48.20;;;27.37;;
16502;SDS011;53067;48.114;11.694;2023-03-04T00:46:12;47.87;;;27.63;;
16502;SDS011;53067;48.114;11.694;2023-03-04T00:48:40;54.30;;;30.10;;
16502;SDS011;53067;48.114;11.694;2023-03-04T00:51:07;51.77;;;28.13;;
16502;SDS011;53067;48.114;11.694;2023-03-04T00:53:35;48.00;;;25.83;;
16502;SDS011;53067;48.114;11.694;2023-03-04T00:56:03;47.93;;;27.53;;
16502;SDS011;53067;48.114;11.694;2023-03-04T00:58:31;46.40;;;27.67;;
16502;SDS011;53067;48.114;11.694;2023-03-04T01:00:58;48.07;;;28.70;;
16502;SDS011;53067;48.114;11.694;2023-03-04T01:03:26;52.80;;;28.90;;
16502;SDS011;53067;48.114;11.694;2023-03-04T01:05:55;50.17;;;27.57;;
16502;SDS011;53067;48.114;11.694;2023-03-04T01:08:23;46.83;;;26.23;;
16502;SDS011;53067;48.114;11.694;2023-03-04T01:10:51;53.93;;;26.83;;
16502;SDS011;53067;48.114;11.694;2023-03-04T01:13:19;49.07;;;27.77;;
16502;SDS011;53067;48.114;11.694;2023-03-04T01:15:46;60.73;;;29.40;;
16502;SDS011;53067;48.114;11.694;2023-03-04T01:18:14;55.63;;;29.00;;
16502;SDS011;53067;48.114;11.694;2023-03-04T01:20:41;48.77;;;27.10;;
16502;SDS011;53067;48.114;11.694;2023-03-04T01:23:09;52.53;;;28.13;;
16502;SDS011;53067;48.114;11.694;2023-03-04T01:25:36;49.83;;;27.37;;
16502;SDS011;53067;48.114;11.694;2023-03-04T01:28:04;45.47;;;25.73;;
16502;SDS011;53067;48.114;11.694;2023-03-04T01:30:31;46.70;;;25.73;;
16502;SDS011;53067;48.114;11.694;2023-03-04T01:32:59;48.57;;;26.50;;
16502;SDS011;53067;48.114;11.694;2023-03-04T01:35:27;46.90;;;27.00;;
16502;SDS011;53067;48.114;11.694;2023-03-04T01:37:54;46.97;;;27.03;;
16502;SDS011;53067;48.114;11.694;2023-03-04T01:40:22;50.63;;;27.37;;
16502;SDS011;53067;48.114;11.694;2023-03-04T01:42:49;52.77;;;27.07;;
16502;SDS011;53067;48.114;11.694;2023-03-04T01:45:17;51.70;;;27.07;;
16502;SDS011;53067;48.114;11.694;2023-03-04T01:47:46;46.80;;;26.27;;
16502;SDS011;53067;48.114;11.694;2023-03-04T01:50:20;50.40;;;28.03;;
16502;SDS011;53067;48.114;11.694;2023-03-04T01:52:51;50.23;;;28.43;;
16502;SDS011;53067;48.114;11.694;2023-03-04T01:55:20;53.17;;;28.93;;
16502;SDS011;53067;48.114;11.694;2023-03-04T01:57:49;51.67;;;29.07;;
16502;SDS011;53067;48.114;11.694;2023-03-04T02:00:19;53.73;;;28.13;;
16502;SDS011;53067;48.114;11.694;2023-03-04T02:02:49;55.03;;;28.60;;
16502;SDS011;53067;48.114;11.694;2023-03-04T02:05:38;50.30;;;27.50;;
16502;SDS011;53067;48.114;11.694;2023-03-04T02:08:11;47.70;;;28.63;;
16502;SDS011;53067;48.114;11.694;2023-03-04T02:10:40;48.17;;;28.90;;
16502;SDS011;53067;48.114;11.694;2023-03-04T02:13:09;52.90;;;28.63;;
16502;SDS011;53067;48.114;11.694;2023-03-04T02:15:37;50.83;;;27.37;;
16502;SDS011;53067;48.114;11.694;2023-03-04T02:18:13;53.77;;;28.53;;
16502;SDS011;53067;48.114;11.694;2023-03-04T02:26:21;49.43;;;26.83;;
16502;SDS011;53067;48.114;11.694;2023-03-04T02:28:51;49.00;;;26.73;;
16502;SDS011;53067;48.114;11.694;2023-03-04T02:31:29;49.77;;;27.67;;
16502;SDS011;53067;48.114;11.694;2023-03-04T02:34:00;59.60;;;28.30;;
16502;SDS011;53067;48.114;11.694;2023-03-04T02:36:30;52.20;;;28.20;;
16502;SDS011;53067;48.114;11.694;2023-03-04T02:39:03;55.50;;;28.77;;
16502;SDS011;53067;48.114;11.694;2023-03-04T02:41:34;47.20;;;26.67;;
16502;SDS011;53067;48.114;11.694;2023-03-04T02:44:02;46.23;;;25.93;;
16502;SDS011;53067;48.114;11.694;2023-03-04T02:46:31;50.20;;;27.00;;
16502;SDS011;53067;48.114;11.694;2023-03-04T02:48:59;46.27;;;25.70;;
16502;SDS011;53067;48.114;11.694;2023-03-04T02:51:26;47.30;;;26.87;;
16502;SDS011;53067;48.114;11.694;2023-03-04T02:53:54;46.47;;;26.67;;
16502;SDS011;53067;48.114;11.694;2023-03-04T02:56:21;45.27;;;25.83;;
16502;SDS011;53067;48.114;11.694;2023-03-04T02:58:49;42.63;;;24.70;;
16502;SDS011;53067;48.114;11.694;2023-03-04T03:01:17;45.37;;;25.67;;
16502;SDS011;53067;48.114;11.694;2023-03-04T03:03:44;44.47;;;25.20;;
16502;SDS011;53067;48.114;11.694;2023-03-04T03:06:11;45.30;;;24.77;;
16502;SDS011;53067;48.114;11.694;2023-03-04T03:08:39;40.03;;;24.33;;
16502;SDS011;53067;48.114;11.694;2023-03-04T03:11:06;45.67;;;25.63;;
16502;SDS011;53067;48.114;11.694;2023-03-04T03:13:34;44.70;;;24.20;;
16502;SDS011;53067;48.114;11.694;2023-03-04T03:16:01;43.37;;;24.67;;
16502;SDS011;53067;48.114;11.694;2023-03-04T03:18:29;43.20;;;24.27;;
16502;SDS011;53067;48.114;11.694;2023-03-04T03:20:57;42.93;;;23.27;;
16502;SDS011;53067;48.114;11.694;2023-03-04T03:23:24;41.87;;;24.60;;
16502;SDS011;53067;48.114;11.694;2023-03-04T03:25:52;46.70;;;24.23;;
16502;SDS011;53067;48.114;11.694;2023-03-04T03:28:19;41.60;;;24.43;;
16502;SDS011;53067;48.114;11.694;2023-03-04T03:30:47;42.37;;;24.73;;
16502;SDS011;53067;48.114;11.694;2023-03-04T03:33:14;43.43;;;23.63;;
16502;SDS011;53067;48.114;11.694;2023-03-04T03:35:42;37.60;;;22.70;;
16502;SDS011;53067;48.114;11.694;2023-03-04T03:38:09;43.23;;;23.97;;
16502;SDS011;53067;48.114;11.694;2023-03-04T03:40:37;40.93;;;23.00;;
16502;SDS011;53067;48.114;11.694;2023-03-04T03:43:04;43.20;;;23.93;;
16502;SDS011;53067;48.114;11.694;2023-03-04T03:45:32;44.60;;;24.23;;
16502;SDS011;53067;48.114;11.694;2023-03-04T03:47:59;45.33;;;25.50;;
16502;SDS011;53067;48.114;11.694;2023-03-04T03:50:27;39.83;;;23.70;;
16502;SDS011;53067;48.114;11.694;2023-03-04T03:52:54;43.57;;;24.80;;
16502;SDS011;53067;48.114;11.694;2023-03-04T03:55:22;40.97;;;22.97;;
16502;SDS011;53067;48.114;11.694;2023-03-04T03:57:49;40.37;;;22.77;;
16502;SDS011;53067;48.114;11.694;2023-03-04T04:00:17;43.10;;;25.07;;
16502;SDS011;53067;48.114;11.694;2023-03-04T04:02:45;43.07;;;24.40;;
16502;SDS011;53067;48.114;11.694;2023-03-04T04:05:12;44.67;;;23.93;;
16502;SDS011;53067;48.114;11.694;2023-03-04T04:07:40;38.30;;;22.63;;
16502;SDS011;53067;48.114;11.694;2023-03-04T04:10:09;37.73;;;21.53;;
16502;SDS011;53067;48.114;11.694;2023-03-04T04:12:37;41.13;;;23.10;;
16502;SDS011;53067;48.114;11.694;2023-03-04T04:15:06;38.27;;;23.40;;
16502;SDS011;53067;48.114;11.694;2023-03-04T04:17:35;39.00;;;24.57;;
16502;SDS011;53067;48.114;11.694;2023-03-04T04:20:03;43.67;;;24.37;;
16502;SDS011;53067;48.114;11.694;2023-03-04T04:22:32;41.10;;;23.37;;
16502;SDS011;53067;48.114;11.694;2023-03-04T04:25:00;44.47;;;24.97;;
16502;SDS011;53067;48.114;11.694;2023-03-04T04:27:27;42.10;;;25.23;;
16502;SDS011;53067;48.114;11.694;2023-03-04T04:29:55;44.77;;;25.70;;
16502;SDS011;53067;48.114;11.694;2023-03-04T04:32:22;44.03;;;25.57;;
16502;SDS011;53067;48.114;11.694;2023-03-04T04:34:50;44.87;;;25.90;;
16502;SDS011;53067;48.114;11.694;2023-03-04T04:37:17;48.60;;;25.73;;
16502;SDS011;53067;48.114;11.694;2023-03-04T04:39:45;45.97;;;26.20;;
16502;SDS011;53067;48.114;11.694;2023-03-04T04:42:12;45.47;;;26.10;;
16502;SDS011;53067;48.114;11.694;2023-03-04T04:44:40;38.03;;;24.63;;
16502;SDS011;53067;48.114;11.694;2023-03-04T04:47:08;49.10;;;27.10;;
16502;SDS011;53067;48.114;11.694;2023-03-04T04:49:35;43.53;;;24.83;;
16502;SDS011;53067;48.114;11.694;2023-03-04T04:52:03;46.03;;;25.80;;
16502;SDS011;53067;48.114;11.694;2023-03-04T04:54:31;42.43;;;24.93;;
16502;SDS011;53067;48.114;11.694;2023-03-04T04:56:59;40.73;;;24.87;;
16502;SDS011;53067;48.114;11.694;2023-03-04T04:59:26;39.23;;;23.70;;
16502;SDS011;53067;48.114;11.694;2023-03-04T05:01:54;41.47;;;24.40;;
16502;SDS011;53067;48.114;11.694;2023-03-04T05:04:21;40.23;;;23.63;;
16502;SDS011;53067;48.114;11.694;2023-03-04T05:06:49;45.20;;;24.40;;
16502;SDS011;53067;48.114;11.694;2023-03-04T05:09:16;43.40;;;25.07;;
16502;SDS011;53067;48.114;11.694;2023-03-04T05:11:45;39.50;;;24.30;;
16502;SDS011;53067;48.114;11.694;2023-03-04T05:14:13;42.63;;;23.83;;
16502;SDS011;53067;48.114;11.694;2023-03-04T05:16:40;38.33;;;22.63;;
16502;SDS011;53067;48.114;11.694;2023-03-04T05:19:08;42.37;;;25.10;;
16502;SDS011;53067;48.114;11.694;2023-03-04T05:21:35;39.73;;;23.50;;
16502;SDS011;53067;48.114;11.694;2023-03-04T05:24:03;41.00;;;24.77;;
16502;SDS011;53067;48.114;11.694;2023-03-04T05:26:31;41.93;;;24.13;;
16502;SDS011;53067;48.114;11.694;2023-03-04T05:28:58;43.10;;;24.17;;
16502;SDS011;53067;48.114;11.694;2023-03-04T05:31:26;38.07;;;22.93;;
16502;SDS011;53067;48.114;11.694;2023-03-04T05:33:53;42.63;;;22.80;;
16502;SDS011;53067;48.114;11.694;2023-03-04T05:36:21;44.13;;;23.93;;
16502;SDS011;53067;48.114;11.694;2023-03-04T05:38:48;40.07;;;23.03;;
16502;SDS011;53067;48.114;11.694;2023-03-04T05:41:16;42.63;;;23.80;;
16502;SDS011;53067;48.114;11.694;2023-03-04T05:43:45;38.70;;;21.73;;
16502;SDS011;53067;48.114;11.694;2023-03-04T05:46:13;38.30;;;22.20;;
16502;SDS011;53067;48.114;11.694;2023-03-04T05:48:42;31.37;;;20.87;;
16502;SDS011;53067;48.114;11.694;2023-03-04T05:51:10;34.67;;;22.03;;
16502;SDS011;53067;48.114;11.694;2023-03-04T05:53:39;39.30;;;22.67;;
16502;SDS011;53067;48.114;11.694;2023-03-04T05:56:11;39.07;;;22.23;;
16502;SDS011;53067;48.114;11.694;2023-03-04T05:58:41;40.27;;;20.67;;
16502;SDS011;53067;48.114;11.694;2023-03-04T06:01:09;35.43;;;21.13;;
16502;SDS011;53067;48.114;11.694;2023-03-04T06:03:37;35.43;;;22.43;;
16502;SDS011;53067;48.114;11.694;2023-03-04T06:06:04;41.13;;;21.50;;
16502;SDS011;53067;48.114;11.694;2023-03-04T06:08:32;42.67;;;22.67;;
16502;SDS011;53067;48.114;11.694;2023-03-04T06:10:59;36.37;;;21.47;;
16502;SDS011;53067;48.114;11.694;2023-03-04T06:13:27;38.63;;;22.10;;
16502;SDS011;53067;48.114;11.694;2023-03-04T06:15:55;36.20;;;21.73;;
16502;SDS011;53067;48.114;11.694;2023-03-04T06:18:24;36.87;;;21.40;;
16502;SDS011;53067;48.114;11.694;2023-03-04T06:20:57;37.10;;;21.33;;
16502;SDS011;53067;48.114;11.694;2023-03-04T06:23:26;33.70;;;20.17;;
16502;SDS011;53067;48.114;11.694;2023-03-04T06:25:56;36.33;;;21.43;;
16502;SDS011;53067;48.114;11.694;2023-03-04T06:28:24;39.20;;;21.67;;
16502;SDS011;53067;48.114;11.694;2023-03-04T06:30:53;39.13;;;23.27;;
16502;SDS011;53067;48.114;11.694;2023-03-04T06:33:21;35.27;;;21.37;;
16502;SDS011;53067;48.114;11.694;2023-03-04T06:35:54;35.33;;;20.23;;
16502;SDS011;53067;48.114;11.694;2023-03-04T06:38:22;39.90;;;22.07;;
16502;SDS011;53067;48.114;11.694;2023-03-04T06:40:50;35.33;;;20.97;;
16502;SDS011;53067;48.114;11.694;2023-03-04T06:43:18;36.67;;;21.27;;
16502;SDS011;53067;48.114;11.694;2023-03-04T06:45:46;40.20;;;21.67;;
16502;SDS011;53067;48.114;11.694;2023-03-04T06:48:14;34.43;;;20.73;;
16502;SDS011;53067;48.114;11.694;2023-03-04T06:50:42;33.37;;;20.50;;
16502;SDS011;53067;48.114;11.694;2023-03-04T06:53:09;33.43;;;21.00;;
16502;SDS011;53067;48.114;11.694;2023-03-04T06:55:37;37.60;;;22.10;;
16502;SDS011;53067;48.114;11.694;2023-03-04T06:58:04;36.87;;;21.70;;
16502;SDS011;53067;48.114;11.694;2023-03-04T07:00:32;38.57;;;22.23;;
16502;SDS011;53067;48.114;11.694;2023-03-04T07:02:59;37.63;;;21.50;;
16502;SDS011;53067;48.114;11.694;2023-03-04T07:05:27;33.97;;;21.47;;
16502;SDS011;53067;48.114;11.694;2023-03-04T07:07:54;38.37;;;20.60;;
16502;SDS011;53067;48.114;11.694;2023-03-04T07:10:22;34.27;;;21.17;;
16502;SDS011;53067;48.114;11.694;2023-03-04T07:12:49;34.97;;;21.63;;
16502;SDS011;53067;48.114;11.694;2023-03-04T07:15:17;35.03;;;21.60;;
16502;SDS011;53067;48.114;11.694;2023-03-04T07:17:44;35.03;;;21.50;;
16502;SDS011;53067;48.114;11.694;2023-03-04T07:20:12;34.33;;;20.33;;
16502;SDS011;53067;48.114;11.694;2023-03-04T07:22:39;34.00;;;21.90;;
16502;SDS011;53067;48.114;11.694;2023-03-04T07:25:07;34.53;;;21.60;;
16502;SDS011;53067;48.114;11.694;2023-03-04T07:27:35;32.17;;;21.17;;
16502;SDS011;53067;48.114;11.694;2023-03-04T07:30:06;33.27;;;21.10;;
16502;SDS011;53067;48.114;11.694;2023-03-04T07:32:35;40.57;;;22.90;;
16502;SDS011;53067;48.114;11.694;2023-03-04T07:35:03;32.37;;;20.50;;
16502;SDS011;53067;48.114;11.694;2023-03-04T07:37:31;36.20;;;20.07;;
16502;SDS011;53067;48.114;11.694;2023-03-04T07:39:59;32.10;;;20.90;;
16502;SDS011;53067;48.114;11.694;2023-03-04T07:42:26;35.03;;;22.47;;
16502;SDS011;53067;48.114;11.694;2023-03-04T07:44:54;33.70;;;21.50;;
16502;SDS011;53067;48.114;11.694;2023-03-04T07:47:21;32.20;;;20.77;;
16502;SDS011;53067;48.114;11.694;2023-03-04T07:49:49;33.70;;;21.77;;
16502;SDS011;53067;48.114;11.694;2023-03-04T07:52:16;33.83;;;21.60;;
16502;SDS011;53067;48.114;11.694;2023-03-04T07:54:53;29.03;;;19.30;;
16502;SDS011;53067;48.114;11.694;2023-03-04T07:57:21;33.20;;;21.57;;
16502;SDS011;53067;48.114;11.694;2023-03-04T07:59:48;30.27;;;20.83;;
16502;SDS011;53067;48.114;11.694;2023-03-04T08:02:16;33.77;;;20.60;;
16502;SDS011;53067;48.114;11.694;2023-03-04T08:04:43;34.33;;;19.93;;
16502;SDS011;53067;48.114;11.694;2023-03-04T08:07:11;32.77;;;21.27;;
16502;SDS011;53067;48.114;11.694;2023-03-04T08:09:38;38.20;;;22.97;;
16502;SDS011;53067;48.114;11.694;2023-03-04T08:12:06;35.13;;;21.87;;
16502;SDS011;53067;48.114;11.694;2023-03-04T08:14:34;34.30;;;21.50;;
16502;SDS011;53067;48.114;11.694;2023-03-04T08:17:02;34.47;;;22.53;;
16502;SDS011;53067;48.114;11.694;2023-03-04T08:19:30;37.27;;;22.07;;
16502;SDS011;53067;48.114;11.694;2023-03-04T08:21:58;33.07;;;22.17;;
16502;SDS011;53067;48.114;11.694;2023-03-04T08:24:26;32.53;;;22.20;;
16502;SDS011;53067;48.114;11.694;2023-03-04T08:26:53;32.47;;;21.90;;
16502;SDS011;53067;48.114;11.694;2023-03-04T08:29:22;36.13;;;22.17;;
16502;SDS011;53067;48.114;11.694;2023-03-04T08:31:50;35.83;;;21.17;;
16502;SDS011;53067;48.114;11.694;2023-03-04T08:34:20;34.47;;;22.33;;
16502;SDS011;53067;48.114;11.694;2023-03-04T08:36:49;35.97;;;21.17;;
16502;SDS011;53067;48.114;11.694;2023-03-04T08:39:17;33.30;;;21.50;;
16502;SDS011;53067;48.114;11.694;2023-03-04T08:41:45;33.60;;;21.83;;
16502;SDS011;53067;48.114;11.694;2023-03-04T08:44:14;37.80;;;23.17;;
16502;SDS011;53067;48.114;11.694;2023-03-04T08:46:42;30.50;;;20.97;;
16502;SDS011;53067;48.114;11.694;2023-03-04T08:49:10;39.47;;;22.83;;
16502;SDS011;53067;48.114;11.694;2023-03-04T08:51:39;38.13;;;21.30;;
16502;SDS011;53067;48.114;11.694;2023-03-04T08:54:07;33.23;;;22.13;;
16502;SDS011;53067;48.114;11.694;2023-03-04T08:56:35;32.77;;;20.80;;
16502;SDS011;53067;48.114;11.694;2023-03-04T08:59:02;36.43;;;21.77;;
16502;SDS011;53067;48.114;11.694;2023-03-04T09:01:30;33.70;;;20.80;;
16502;SDS011;53067;48.114;11.694;2023-03-04T09:03:57;34.73;;;20.93;;
16502;SDS011;53067;48.114;11.694;2023-03-04T09:06:25;32.23;;;20.57;;
16502;SDS011;53067;48.114;11.694;2023-03-04T09:08:52;29.63;;;19.13;;
16502;SDS011;53067;48.114;11.694;2023-03-04T09:11:20;33.40;;;20.40;;
16502;SDS011;53067;48.114;11.694;2023-03-04T09:13:47;34.80;;;20.67;;
16502;SDS011;53067;48.114;11.694;2023-03-04T09:16:16;37.87;;;21.00;;
16502;SDS011;53067;48.114;11.694;2023-03-04T09:18:44;34.83;;;20.67;;
16502;SDS011;53067;48.114;11.694;2023-03-04T09:21:11;27.63;;;18.50;;
16502;SDS011;53067;48.114;11.694;2023-03-04T09:23:39;31.43;;;19.77;;
16502;SDS011;53067;48.114;11.694;2023-03-04T09:26:14;31.63;;;20.83;;
16502;SDS011;53067;48.114;11.694;2023-03-04T09:28:43;27.67;;;18.73;;
16502;SDS011;53067;48.114;11.694;2023-03-04T09:31:11;27.53;;;17.90;;
16502;SDS011;53067;48.114;11.694;2023-03-04T09:33:40;29.03;;;19.23;;
16502;SDS011;53067;48.114;11.694;2023-03-04T09:36:08;31.00;;;19.53;;
16502;SDS011;53067;48.114;11.694;2023-03-04T09:38:37;32.43;;;19.30;;
16502;SDS011;53067;48.114;11.694;2023-03-04T09:41:12;30.30;;;19.67;;
16502;SDS011;53067;48.114;11.694;2023-03-04T09:43:55;25.73;;;17.40;;
16502;SDS011;53067;48.114;11.694;2023-03-04T09:46:32;26.27;;;16.57;;
16502;SDS011;53067;48.114;11.694;2023-03-04T09:48:57;29.30;;;18.53;;
16502;SDS011;53067;48.114;11.694;2023-03-04T09:56:39;26.37;;;17.33;;
16502;SDS011;53067;48.114;11.694;2023-03-04T10:01:57;31.07;;;17.30;;
16502;SDS011;53067;48.114;11.694;2023-03-04T10:07:04;23.93;;;16.53;;
16502;SDS011;53067;48.114;11.694;2023-03-04T10:12:23;25.13;;;16.57;;
16502;SDS011;53067;48.114;11.694;2023-03-04T10:17:37;23.03;;;15.47;;
16502;SDS011;53067;48.114;11.694;2023-03-04T10:20:11;22.97;;;15.83;;
16502;SDS011;53067;48.114;11.694;2023-03-04T10:22:44;20.93;;;15.70;;
16502;SDS011;53067;48.114;11.694;2023-03-04T10:27:59;23.57;;;16.43;;
16502;SDS011;53067;48.114;11.694;2023-03-04T10:33:30;22.63;;;16.40;;
16502;SDS011;53067;48.114;11.694;2023-03-04T10:38:57;24.00;;;18.00;;
16502;SDS011;53067;48.114;11.694;2023-03-04T10:41:40;24.57;;;16.80;;
16502;SDS011;53067;48.114;11.694;2023-03-04T10:44:16;25.50;;;17.33;;
16502;SDS011;53067;48.114;11.694;2023-03-04T10:46:45;23.57;;;16.70;;
16502;SDS011;53067;48.114;11.694;2023-03-04T10:49:15;22.73;;;17.17;;
16502;SDS011;53067;48.114;11.694;2023-03-04T10:51:47;23.80;;;17.53;;
16502;SDS011;53067;48.114;11.694;2023-03-04T10:56:58;23.40;;;18.07;;
16502;SDS011;53067;48.114;11.694;2023-03-04T11:02:20;26.97;;;20.37;;
16502;SDS011;53067;48.114;11.694;2023-03-04T11:07:39;22.50;;;18.05;;
16502;SDS011;53067;48.114;11.694;2023-03-04T11:10:28;25.30;;;19.15;;
16502;SDS011;53067;48.114;11.694;2023-03-04T11:13:00;21.35;;;17.65;;
16502;SDS011;53067;48.114;11.694;2023-03-04T11:15:30;22.85;;;17.75;;
16502;SDS011;53067;48.114;11.694;2023-03-04T11:18:02;24.65;;;18.07;;
16502;SDS011;53067;48.114;11.694;2023-03-04T11:20:35;21.33;;;17.92;;
16502;SDS011;53067;48.114;11.694;2023-03-04T11:23:16;22.32;;;17.52;;
16502;SDS011;53067;48.114;11.694;2023-03-04T11:25:51;20.92;;;17.00;;
16502;SDS011;53067;48.114;11.694;2023-03-04T11:28:23;22.52;;;17.77;;
16502;SDS011;53067;48.114;11.694;2023-03-04T11:31:12;21.93;;;17.87;;
16502;SDS011;53067;48.114;11.694;2023-03-04T11:36:24;22.25;;;18.00;;
16502;SDS011;53067;48.114;11.694;2023-03-04T11:38:50;22.85;;;18.27;;
16502;SDS011;53067;48.114;11.694;2023-03-04T11:41:19;20.90;;;18.27;;
16502;SDS011;53067;48.114;11.694;2023-03-04T11:43:48;22.93;;;19.37;;
16502;SDS011;53067;48.114;11.694;2023-03-04T11:49:24;21.33;;;18.82;;
16502;SDS011;53067;48.114;11.694;2023-03-04T11:52:11;25.45;;;19.55;;
16502;SDS011;53067;48.114;11.694;2023-03-04T11:57:22;25.43;;;19.48;;
16502;SDS011;53067;48.114;11.694;2023-03-04T12:03:04;26.57;;;21.07;;
16502;SDS011;53067;48.114;11.694;2023-03-04T12:08:26;25.97;;;19.17;;
16502;SDS011;53067;48.114;11.694;2023-03-04T12:11:11;24.25;;;19.07;;
16502;SDS011;53067;48.114;11.694;2023-03-04T12:14:00;21.10;;;18.35;;
16502;SDS011;53067;48.114;11.694;2023-03-04T12:16:40;21.12;;;18.05;;
16502;SDS011;53067;48.114;11.694;2023-03-04T12:19:22;21.93;;;18.23;;
16502;SDS011;53067;48.114;11.694;2023-03-04T12:22:17;25.68;;;19.30;;
16502;SDS011;53067;48.114;11.694;2023-03-04T12:30:34;23.95;;;20.43;;
16502;SDS011;53067;48.114;11.694;2023-03-04T12:35:55;21.35;;;18.50;;
16502;SDS011;53067;48.114;11.694;2023-03-04T12:41:52;21.62;;;19.30;;
16502;SDS011;53067;48.114;11.694;2023-03-04T12:44:37;23.05;;;19.62;;
16502;SDS011;53067;48.114;11.694;2023-03-04T12:47:33;20.95;;;18.75;;
16502;SDS011;53067;48.114;11.694;2023-03-04T12:50:03;21.90;;;19.37;;
16502;SDS011;53067;48.114;11.694;2023-03-04T12:52:51;22.07;;;19.80;;
16502;SDS011;53067;48.114;11.694;2023-03-04T12:55:28;24.32;;;19.67;;
16502;SDS011;53067;48.114;11.694;2023-03-04T12:57:53;23.65;;;19.85;;
16502;SDS011;53067;48.114;11.694;2023-03-04T13:00:37;21.48;;;19.17;;
16502;SDS011;53067;48.114;11.694;2023-03-04T13:03:36;21.17;;;18.87;;
16502;SDS011;53067;48.114;11.694;2023-03-04T13:06:25;22.45;;;19.90;;
16502;SDS011;53067;48.114;11.694;2023-03-04T13:09:27;21.73;;;18.55;;
16502;SDS011;53067;48.114;11.694;2023-03-04T13:12:01;22.35;;;19.30;;
16502;SDS011;53067;48.114;11.694;2023-03-04T13:23:01;16.55;;;14.28;;
16502;SDS011;53067;48.114;11.694;2023-03-04T13:28:27;15.93;;;14.13;;
16502;SDS011;53067;48.114;11.694;2023-03-04T13:36:25;19.27;;;14.13;;
16502;SDS011;53067;48.114;11.694;2023-03-04T13:38:37;16.00;;;14.10;;
16502;SDS011;53067;48.114;11.694;2023-03-04T13:41:17;17.32;;;13.95;;
16502;SDS011;53067;48.114;11.694;2023-03-04T13:43:52;15.25;;;13.32;;
16502;SDS011;53067;48.114;11.694;2023-03-04T13:56:35;19.47;;;15.23;;
16502;SDS011;53067;48.114;11.694;2023-03-04T14:04:15;20.53;;;16.30;;
16502;SDS011;53067;48.114;11.694;2023-03-04T14:06:41;22.17;;;15.97;;
16502;SDS011;53067;48.114;11.694;2023-03-04T14:11:48;21.17;;;15.53;;
16502;SDS011;53067;48.114;11.694;2023-03-04T14:14:19;18.13;;;15.13;;
16502;SDS011;53067;48.114;11.694;2023-03-04T14:21:56;17.10;;;14.33;;
16502;SDS011;53067;48.114;11.694;2023-03-04T14:24:26;17.63;;;13.53;;
16502;SDS011;53067;48.114;11.694;2023-03-04T14:27:05;19.43;;;14.03;;
16502;SDS011;53067;48.114;11.694;2023-03-04T14:29:37;17.37;;;13.20;;
16502;SDS011;53067;48.114;11.694;2023-03-04T14:32:05;16.43;;;13.60;;
16502;SDS011;53067;48.114;11.694;2023-03-04T14:34:34;17.57;;;13.80;;
16502;SDS011;53067;48.114;11.694;2023-03-04T14:37:17;18.60;;;13.90;;
16502;SDS011;53067;48.114;11.694;2023-03-04T14:39:47;18.93;;;14.00;;
16502;SDS011;53067;48.114;11.694;2023-03-04T14:42:17;17.93;;;13.50;;
16502;SDS011;53067;48.114;11.694;2023-03-04T14:44:47;19.50;;;13.83;;
16502;SDS011;53067;48.114;11.694;2023-03-04T14:47:18;20.27;;;13.47;;
16502;SDS011;53067;48.114;11.694;2023-03-04T14:49:47;19.30;;;13.03;;
16502;SDS011;53067;48.114;11.694;2023-03-04T14:52:25;16.77;;;13.47;;
16502;SDS011;53067;48.114;11.694;2023-03-04T14:55:02;16.73;;;12.73;;
16502;SDS011;53067;48.114;11.694;2023-03-04T14:57:32;16.63;;;13.70;;
16502;SDS011;53067;48.114;11.694;2023-03-04T15:00:13;17.77;;;12.50;;
16502;SDS011;53067;48.114;11.694;2023-03-04T15:02:55;21.63;;;13.20;;
16502;SDS011;53067;48.114;11.694;2023-03-04T15:05:26;15.60;;;12.07;;
16502;SDS011;53067;48.114;11.694;2023-03-04T15:08:02;16.57;;;12.60;;
16502;SDS011;53067;48.114;11.694;2023-03-04T15:10:34;17.60;;;13.40;;
16502;SDS011;53067;48.114;11.694;2023-03-04T15:13:04;15.83;;;11.87;;
16502;SDS011;53067;48.114;11.694;2023-03-04T15:15:40;15.27;;;12.80;;
16502;SDS011;53067;48.114;11.694;2023-03-04T15:18:20;15.00;;;11.73;;
16502;SDS011;53067;48.114;11.694;2023-03-04T15:20:51;18.50;;;12.70;;
16502;SDS011;53067;48.114;11.694;2023-03-04T15:23:20;16.40;;;11.47;;
16502;SDS011;53067;48.114;11.694;2023-03-04T15:25:56;17.27;;;11.30;;
16502;SDS011;53067;48.114;11.694;2023-03-04T15:28:21;14.63;;;11.87;;
16502;SDS011;53067;48.114;11.694;2023-03-04T15:30:49;22.30;;;13.93;;
16502;SDS011;53067;48.114;11.694;2023-03-04T15:33:17;18.70;;;12.87;;
16502;SDS011;53067;48.114;11.694;2023-03-04T15:35:54;18.00;;;12.00;;
16502;SDS011;53067;48.114;11.694;2023-03-04T15:38:19;17.00;;;11.60;;
16502;SDS011;53067;48.114;11.694;2023-03-04T15:40:47;16.07;;;12.10;;
16502;SDS011;53067;48.114;11.694;2023-03-04T15:43:16;15.07;;;11.40;;
16502;SDS011;53067;48.114;11.694;2023-03-04T15:45:47;17.03;;;12.13;;
16502;SDS011;53067;48.114;11.694;2023-03-04T15:48:15;16.47;;;11.77;;
16502;SDS011;53067;48.114;11.694;2023-03-04T15:50:46;16.30;;;10.07;;
16502;SDS011;53067;48.114;11.694;2023-03-04T15:53:24;16.10;;;11.13;;
16502;SDS011;53067;48.114;11.694;2023-03-04T15:55:54;15.33;;;11.43;;
16502;SDS011;53067;48.114;11.694;2023-03-04T15:58:21;16.17;;;11.33;;
16502;SDS011;53067;48.114;11.694;2023-03-04T16:00:49;13.70;;;10.33;;
16502;SDS011;53067;48.114;11.694;2023-03-04T16:03:18;16.70;;;10.73;;
16502;SDS011;53067;48.114;11.694;2023-03-04T16:05:47;17.53;;;11.73;;
16502;SDS011;53067;48.114;11.694;2023-03-04T16:08:17;19.07;;;11.53;;
16502;SDS011;53067;48.114;11.694;2023-03-04T16:10:46;14.67;;;10.57;;